Aérodrome :
LOGIN :

S'inscrire | Disclaimer

   EN    FR    IT 

 










Légende :    VFR   VFR Marginal   IFR   IFR Intensif   IFR Très Intensif
Visi : 
Plafond : 
>= 8 km
>= 3000ft
5 à 8 km
1000 à 3000 ft
1500m à 5 km
500 à 1000 ft
800 à 1500m
200 à 500 ft
< 800m
< 200 ft
Symboles :   Orages  Brouillard  Fortes neiges  Fortes précipitations  Vent > 20 kt
SIGMETs :   Divers  Orages  Givrage  Turbulence  Onde Orograph.  Cendres Volcan.







- Altitude de l'aérodrome : 126 ft
- Code IATA : WIC
- Voir les cartes d'approche


EGPC - Wick

DERNIER METAR :
  • 192220Z AUTO 14007KT 9999 NCD 11/09 Q1015

METARs EXPIRÉS :
  • 192150Z AUTO 13007KT 9999 NCD 11/09 Q1015
  • 192120Z AUTO 13007KT 9999 NCD 10/08 Q1015
  • 192050Z AUTO 13006KT 9999 NCD 10/08 Q1015
  • 192020Z AUTO 14005KT 9999 NCD 10/08 Q1015
  • 191950Z AUTO 15004KT 9999 NCD 10/08 Q1016
  • 191920Z AUTO VRB02KT 9999 NCD 10/08 Q1016

TAF TAF EGPC
Valide du 19 à 21h jusqu'au 20 à 06h UTC


191956Z 1921/2006 15006KT 9999 FEW030
ATIS : +44 1955 607 596
Pas de NOTAMs connus pour ce terrain.



MET'MAP, la Météo Aéronautique d'un coup d'oeil ! - Copyright ORBIFLY Décembre 2007 - Disclaimer

ORBIFLY MET'MAP TEAM :

Programmation & Développement : Alexandra Zaïnal
Conception & Développement : Baudouin d'Aumeries
Co-Programmation & Développement : Marc-Olivier Méhu
Soutien technique & logistique : Manuel Goepfert

Contact : metmap@orbifly.com




SOURCES & CREDITS :

   NOAA